sensor_id;sensor_type;location;lat;lon;timestamp;pressure;altitude;pressure_sealevel;temperature;humidity
17936;BME280;9093;52.062;4.508;2023-04-01T00:02:00;99387.06;;;10.41;85.37
17936;BME280;9093;52.062;4.508;2023-04-01T00:04:40;99383.66;;;10.39;85.38
17936;BME280;9093;52.062;4.508;2023-04-01T00:07:21;99385.34;;;10.40;85.64
17936;BME280;9093;52.062;4.508;2023-04-01T00:10:03;99380.88;;;10.40;85.19
17936;BME280;9093;52.062;4.508;2023-04-01T00:12:44;99388.13;;;10.38;85.22
17936;BME280;9093;52.062;4.508;2023-04-01T00:15:24;99399.06;;;10.35;85.22
17936;BME280;9093;52.062;4.508;2023-04-01T00:18:05;99395.66;;;10.33;85.32
17936;BME280;9093;52.062;4.508;2023-04-01T00:20:48;99387.63;;;10.33;85.39
17936;BME280;9093;52.062;4.508;2023-04-01T00:23:28;99393.72;;;10.35;85.28
17936;BME280;9093;52.062;4.508;2023-04-01T00:26:08;99389.25;;;10.36;85.34
17936;BME280;9093;52.062;4.508;2023-04-01T00:28:49;99392.75;;;10.36;85.30
17936;BME280;9093;52.062;4.508;2023-04-01T00:31:29;99392.88;;;10.35;85.43
17936;BME280;9093;52.062;4.508;2023-04-01T00:34:10;99403.66;;;10.33;85.43
17936;BME280;9093;52.062;4.508;2023-04-01T00:36:50;99402.91;;;10.31;85.62
17936;BME280;9093;52.062;4.508;2023-04-01T00:39:33;99407.38;;;10.31;85.44
17936;BME280;9093;52.062;4.508;2023-04-01T00:42:13;99407.63;;;10.28;85.47
17936;BME280;9093;52.062;4.508;2023-04-01T00:44:55;99414.78;;;10.27;85.62
17936;BME280;9093;52.062;4.508;2023-04-01T00:47:35;99418.41;;;10.26;85.33
17936;BME280;9093;52.062;4.508;2023-04-01T00:50:16;99419.03;;;10.30;85.41
17936;BME280;9093;52.062;4.508;2023-04-01T00:52:57;99420.63;;;10.32;85.39
17936;BME280;9093;52.062;4.508;2023-04-01T00:55:42;99427.06;;;10.30;85.29
17936;BME280;9093;52.062;4.508;2023-04-01T00:58:24;99433.25;;;10.30;85.30
17936;BME280;9093;52.062;4.508;2023-04-01T01:01:08;99425.22;;;10.30;85.41
17936;BME280;9093;52.062;4.508;2023-04-01T01:03:48;99430.78;;;10.27;85.52
17936;BME280;9093;52.062;4.508;2023-04-01T01:06:46;99427.38;;;10.25;85.49
17936;BME280;9093;52.062;4.508;2023-04-01T01:12:40;99433.31;;;10.18;85.45
17936;BME280;9093;52.062;4.508;2023-04-01T01:15:44;99432.44;;;10.17;85.48
17936;BME280;9093;52.062;4.508;2023-04-01T01:18:34;99437.84;;;10.16;85.52
17936;BME280;9093;52.062;4.508;2023-04-01T01:21:49;99436.25;;;10.13;85.65
17936;BME280;9093;52.062;4.508;2023-04-01T01:24:45;99442.44;;;10.14;85.43
17936;BME280;9093;52.062;4.508;2023-04-01T01:27:32;99449.31;;;10.18;85.51
17936;BME280;9093;52.062;4.508;2023-04-01T01:36:03;99457.59;;;10.13;85.46
17936;BME280;9093;52.062;4.508;2023-04-01T01:38:45;99454.22;;;10.11;85.44
17936;BME280;9093;52.062;4.508;2023-04-01T01:41:27;99463.38;;;10.07;85.50
17936;BME280;9093;52.062;4.508;2023-04-01T01:44:11;99460.38;;;10.12;85.53
17936;BME280;9093;52.062;4.508;2023-04-01T01:46:53;99471.06;;;10.12;85.55
17936;BME280;9093;52.062;4.508;2023-04-01T01:49:35;99463.16;;;10.10;85.77
17936;BME280;9093;52.062;4.508;2023-04-01T01:52:16;99466.78;;;10.09;85.80
17936;BME280;9093;52.062;4.508;2023-04-01T01:54:57;99470.31;;;10.09;85.88
17936;BME280;9093;52.062;4.508;2023-04-01T01:57:38;99471.88;;;10.12;85.77
17936;BME280;9093;52.062;4.508;2023-04-01T02:00:20;99481.47;;;10.15;85.74
17936;BME280;9093;52.062;4.508;2023-04-01T02:03:01;99478.81;;;10.15;85.70
17936;BME280;9093;52.062;4.508;2023-04-01T02:05:42;99479.88;;;10.12;85.72
17936;BME280;9093;52.062;4.508;2023-04-01T02:08:45;99486.19;;;10.11;85.69
17936;BME280;9093;52.062;4.508;2023-04-01T02:11:31;99484.03;;;10.16;85.74
17936;BME280;9093;52.062;4.508;2023-04-01T02:14:19;99492.59;;;10.21;85.50
17936;BME280;9093;52.062;4.508;2023-04-01T02:17:02;99496.72;;;10.25;85.65
17936;BME280;9093;52.062;4.508;2023-04-01T02:19:48;99506.03;;;10.20;85.64
17936;BME280;9093;52.062;4.508;2023-04-01T02:22:37;99497.16;;;10.19;85.61
17936;BME280;9093;52.062;4.508;2023-04-01T02:25:26;99508.59;;;10.21;85.72
17936;BME280;9093;52.062;4.508;2023-04-01T02:28:09;99513.94;;;10.21;85.74
17936;BME280;9093;52.062;4.508;2023-04-01T02:30:51;99516.59;;;10.21;85.51
17936;BME280;9093;52.062;4.508;2023-04-01T02:33:32;99514.78;;;10.22;85.80
17936;BME280;9093;52.062;4.508;2023-04-01T02:36:13;99524.38;;;10.24;85.89
17936;BME280;9093;52.062;4.508;2023-04-01T02:38:55;99529.72;;;10.24;85.81
17936;BME280;9093;52.062;4.508;2023-04-01T02:41:43;99529.72;;;10.24;85.70
17936;BME280;9093;52.062;4.508;2023-04-01T02:44:24;99529.47;;;10.27;85.79
17936;BME280;9093;52.062;4.508;2023-04-01T02:47:04;99530.44;;;10.26;85.73
17936;BME280;9093;52.062;4.508;2023-04-01T02:49:45;99536.53;;;10.28;85.82
17936;BME280;9093;52.062;4.508;2023-04-01T02:52:26;99531.19;;;10.28;85.84
17936;BME280;9093;52.062;4.508;2023-04-01T02:55:07;99541.75;;;10.30;85.80
17936;BME280;9093;52.062;4.508;2023-04-01T02:57:47;99538.22;;;10.29;85.65
17936;BME280;9093;52.062;4.508;2023-04-01T03:00:28;99542.59;;;10.30;85.65
17936;BME280;9093;52.062;4.508;2023-04-01T03:03:09;99552.28;;;10.31;85.70
17936;BME280;9093;52.062;4.508;2023-04-01T03:05:49;99554.00;;;10.32;85.69
17936;BME280;9093;52.062;4.508;2023-04-01T03:08:30;99558.38;;;10.33;85.83
17936;BME280;9093;52.062;4.508;2023-04-01T03:11:11;99555.69;;;10.33;85.91
17936;BME280;9093;52.062;4.508;2023-04-01T03:13:51;99565.53;;;10.33;85.80
17936;BME280;9093;52.062;4.508;2023-04-01T03:16:32;99573.41;;;10.34;85.84
17936;BME280;9093;52.062;4.508;2023-04-01T03:19:12;99585.78;;;10.35;85.96
17936;BME280;9093;52.062;4.508;2023-04-01T03:21:53;99592.84;;;10.36;85.85
17936;BME280;9093;52.062;4.508;2023-04-01T03:24:33;99590.03;;;10.38;85.95
17936;BME280;9093;52.062;4.508;2023-04-01T03:27:13;99597.94;;;10.39;85.98
17936;BME280;9093;52.062;4.508;2023-04-01T03:29:54;99607.66;;;10.40;86.02
17936;BME280;9093;52.062;4.508;2023-04-01T03:32:34;99603.28;;;10.39;85.67
17936;BME280;9093;52.062;4.508;2023-04-01T03:35:15;99612.22;;;10.38;85.89
17936;BME280;9093;52.062;4.508;2023-04-01T03:37:55;99613.09;;;10.39;86.01
17936;BME280;9093;52.062;4.508;2023-04-01T03:40:36;99622.06;;;10.38;86.01
17936;BME280;9093;52.062;4.508;2023-04-01T03:43:18;99624.63;;;10.39;86.14
17936;BME280;9093;52.062;4.508;2023-04-01T03:45:58;99629.94;;;10.39;86.12
17936;BME280;9093;52.062;4.508;2023-04-01T03:48:38;99634.22;;;10.42;85.85
17936;BME280;9093;52.062;4.508;2023-04-01T03:51:19;99644.03;;;10.41;86.10
17936;BME280;9093;52.062;4.508;2023-04-01T03:53:59;99641.28;;;10.43;85.97
17936;BME280;9093;52.062;4.508;2023-04-01T03:56:40;99648.28;;;10.44;86.16
17936;BME280;9093;52.062;4.508;2023-04-01T03:59:20;99649.16;;;10.44;85.88
17936;BME280;9093;52.062;4.508;2023-04-01T04:02:00;99663.34;;;10.45;85.94
17936;BME280;9093;52.062;4.508;2023-04-01T04:04:41;99666.13;;;10.43;85.96
17936;BME280;9093;52.062;4.508;2023-04-01T04:07:22;99670.50;;;10.44;86.00
17936;BME280;9093;52.062;4.508;2023-04-01T04:10:03;99668.69;;;10.45;86.07
17936;BME280;9093;52.062;4.508;2023-04-01T04:12:43;99674.13;;;10.43;86.19
17936;BME280;9093;52.062;4.508;2023-04-01T04:15:24;99677.78;;;10.42;86.15
17936;BME280;9093;52.062;4.508;2023-04-01T04:18:04;99686.50;;;10.44;86.03
17936;BME280;9093;52.062;4.508;2023-04-01T04:20:45;99684.69;;;10.45;86.02
17936;BME280;9093;52.062;4.508;2023-04-01T04:23:28;99693.78;;;10.42;85.88
17936;BME280;9093;52.062;4.508;2023-04-01T04:26:12;99701.03;;;10.40;86.08
17936;BME280;9093;52.062;4.508;2023-04-01T04:28:54;99710.66;;;10.43;86.22
17936;BME280;9093;52.062;4.508;2023-04-01T04:31:34;99713.53;;;10.40;86.22
17936;BME280;9093;52.062;4.508;2023-04-01T04:34:15;99717.03;;;10.40;86.11
17936;BME280;9093;52.062;4.508;2023-04-01T04:36:55;99718.75;;;10.41;86.20
17936;BME280;9093;52.062;4.508;2023-04-01T04:39:35;99723.25;;;10.41;86.04
17936;BME280;9093;52.062;4.508;2023-04-01T04:42:16;99725.16;;;10.39;86.52
17936;BME280;9093;52.062;4.508;2023-04-01T04:44:56;99726.97;;;10.38;86.16
17936;BME280;9093;52.062;4.508;2023-04-01T04:47:36;99729.63;;;10.38;86.24
17936;BME280;9093;52.062;4.508;2023-04-01T04:50:17;99740.31;;;10.38;86.23
17936;BME280;9093;52.062;4.508;2023-04-01T04:52:57;99737.63;;;10.38;86.23
17936;BME280;9093;52.062;4.508;2023-04-01T04:55:42;99750.88;;;10.40;86.24
17936;BME280;9093;52.062;4.508;2023-04-01T04:58:23;99754.41;;;10.40;85.97
17936;BME280;9093;52.062;4.508;2023-04-01T05:01:11;99766.13;;;10.38;86.18
17936;BME280;9093;52.062;4.508;2023-04-01T05:03:52;99765.16;;;10.39;85.99
17936;BME280;9093;52.062;4.508;2023-04-01T05:06:32;99760.91;;;10.36;86.24
17936;BME280;9093;52.062;4.508;2023-04-01T05:09:13;99771.59;;;10.36;86.37
17936;BME280;9093;52.062;4.508;2023-04-01T05:11:53;99776.16;;;10.34;86.15
17936;BME280;9093;52.062;4.508;2023-04-01T05:14:33;99776.38;;;10.31;86.36
17936;BME280;9093;52.062;4.508;2023-04-01T05:17:14;99787.03;;;10.31;86.26
17936;BME280;9093;52.062;4.508;2023-04-01T05:19:54;99794.09;;;10.32;86.23
17936;BME280;9093;52.062;4.508;2023-04-01T05:22:35;99802.09;;;10.32;86.30
17936;BME280;9093;52.062;4.508;2023-04-01T05:25:15;99805.84;;;10.30;86.09
17936;BME280;9093;52.062;4.508;2023-04-01T05:27:55;99804.13;;;10.29;86.23
17936;BME280;9093;52.062;4.508;2023-04-01T05:30:36;99806.91;;;10.27;86.24
17936;BME280;9093;52.062;4.508;2023-04-01T05:33:16;99810.31;;;10.29;86.22
17936;BME280;9093;52.062;4.508;2023-04-01T05:35:57;99825.38;;;10.30;86.30
17936;BME280;9093;52.062;4.508;2023-04-01T05:38:45;99820.75;;;10.32;86.29
17936;BME280;9093;52.062;4.508;2023-04-01T05:41:26;99829.72;;;10.31;86.18
17936;BME280;9093;52.062;4.508;2023-04-01T05:44:06;99841.25;;;10.32;86.17
17936;BME280;9093;52.062;4.508;2023-04-01T05:46:47;99833.38;;;10.30;86.24
17936;BME280;9093;52.062;4.508;2023-04-01T05:49:27;99844.88;;;10.31;86.20
17936;BME280;9093;52.062;4.508;2023-04-01T05:52:08;99838.91;;;10.27;86.30
17936;BME280;9093;52.062;4.508;2023-04-01T05:54:48;99846.06;;;10.27;86.31
17936;BME280;9093;52.062;4.508;2023-04-01T05:57:29;99851.28;;;10.28;86.38
17936;BME280;9093;52.062;4.508;2023-04-01T06:00:09;99859.19;;;10.30;86.17
17936;BME280;9093;52.062;4.508;2023-04-01T06:02:50;99855.69;;;10.29;86.18
17936;BME280;9093;52.062;4.508;2023-04-01T06:05:50;99865.59;;;10.27;86.15
17936;BME280;9093;52.062;4.508;2023-04-01T06:08:31;99866.44;;;10.28;86.00
17936;BME280;9093;52.062;4.508;2023-04-01T06:11:23;99876.25;;;10.27;86.20
17936;BME280;9093;52.062;4.508;2023-04-01T06:19:51;99889.06;;;10.22;86.23
17936;BME280;9093;52.062;4.508;2023-04-01T06:25:43;99906.56;;;10.26;85.97
17936;BME280;9093;52.062;4.508;2023-04-01T06:35:02;99919.16;;;10.24;86.45
17936;BME280;9093;52.062;4.508;2023-04-01T06:41:06;99934.31;;;10.24;85.99
17936;BME280;9093;52.062;4.508;2023-04-01T06:47:02;99931.75;;;10.22;86.31
17936;BME280;9093;52.062;4.508;2023-04-01T06:50:07;99935.16;;;10.24;86.34
17936;BME280;9093;52.062;4.508;2023-04-01T06:56:11;99940.19;;;10.29;86.06
17936;BME280;9093;52.062;4.508;2023-04-01T06:58:58;99945.44;;;10.30;86.29
17936;BME280;9093;52.062;4.508;2023-04-01T07:01:46;99951.59;;;10.31;86.39
17936;BME280;9093;52.062;4.508;2023-04-01T07:04:30;99949.59;;;10.34;86.20
17936;BME280;9093;52.062;4.508;2023-04-01T07:07:31;99960.25;;;10.34;86.09
17936;BME280;9093;52.062;4.508;2023-04-01T07:13:20;99963.69;;;10.36;86.37
17936;BME280;9093;52.062;4.508;2023-04-01T07:16:11;99967.22;;;10.37;85.94
17936;BME280;9093;52.062;4.508;2023-04-01T07:18:58;99975.97;;;10.39;86.14
17936;BME280;9093;52.062;4.508;2023-04-01T07:21:54;99981.38;;;10.37;86.13
17936;BME280;9093;52.062;4.508;2023-04-01T07:24:40;99982.91;;;10.41;86.16
17936;BME280;9093;52.062;4.508;2023-04-01T07:27:23;99991.56;;;10.45;86.15
17936;BME280;9093;52.062;4.508;2023-04-01T07:30:17;99992.63;;;10.42;86.03
17936;BME280;9093;52.062;4.508;2023-04-01T07:33:04;99996.91;;;10.45;86.17
17936;BME280;9093;52.062;4.508;2023-04-01T07:36:03;100001.38;;;10.44;86.14
17936;BME280;9093;52.062;4.508;2023-04-01T07:47:54;100020.19;;;10.43;86.12
17936;BME280;9093;52.062;4.508;2023-04-01T07:50:55;100020.06;;;10.44;86.07
17936;BME280;9093;52.062;4.508;2023-04-01T07:53:58;100021.75;;;10.45;86.17
17936;BME280;9093;52.062;4.508;2023-04-01T07:57:12;100024.34;;;10.47;85.96
17936;BME280;9093;52.062;4.508;2023-04-01T08:06:02;100042.63;;;10.53;86.13
17936;BME280;9093;52.062;4.508;2023-04-01T08:17:56;100054.28;;;10.65;85.94
17936;BME280;9093;52.062;4.508;2023-04-01T08:20:48;100059.72;;;10.63;85.80
17936;BME280;9093;52.062;4.508;2023-04-01T08:23:37;100074.88;;;10.63;85.83
17936;BME280;9093;52.062;4.508;2023-04-01T08:26:36;100085.78;;;10.60;85.61
17936;BME280;9093;52.062;4.508;2023-04-01T08:29:23;100072.44;;;10.60;85.94
17936;BME280;9093;52.062;4.508;2023-04-01T08:32:39;100077.00;;;10.58;85.65
17936;BME280;9093;52.062;4.508;2023-04-01T08:35:31;100078.63;;;10.60;85.97
17936;BME280;9093;52.062;4.508;2023-04-01T08:43:54;100084.09;;;10.71;85.76
17936;BME280;9093;52.062;4.508;2023-04-01T08:49:48;100102.69;;;10.73;85.59
17936;BME280;9093;52.062;4.508;2023-04-01T09:04:33;100117.41;;;10.66;85.74
17936;BME280;9093;52.062;4.508;2023-04-01T09:19:20;100138.13;;;10.75;85.53
17936;BME280;9093;52.062;4.508;2023-04-01T09:22:15;100143.47;;;10.75;85.66
17936;BME280;9093;52.062;4.508;2023-04-01T09:28:10;100147.13;;;10.74;85.75
17936;BME280;9093;52.062;4.508;2023-04-01T09:34:30;100143.28;;;10.78;85.63
17936;BME280;9093;52.062;4.508;2023-04-01T09:37:33;100151.00;;;10.82;85.57
17936;BME280;9093;52.062;4.508;2023-04-01T09:43:27;100155.28;;;10.85;85.49
17936;BME280;9093;52.062;4.508;2023-04-01T09:46:19;100162.91;;;10.91;85.32
17936;BME280;9093;52.062;4.508;2023-04-01T09:52:10;100158.50;;;10.90;85.43
17936;BME280;9093;52.062;4.508;2023-04-01T09:58:16;100170.75;;;10.80;85.54
17936;BME280;9093;52.062;4.508;2023-04-01T10:04:48;100182.19;;;10.82;85.59
17936;BME280;9093;52.062;4.508;2023-04-01T10:10:58;100187.53;;;10.82;85.61
17936;BME280;9093;52.062;4.508;2023-04-01T10:20:29;100194.41;;;10.86;85.54
17936;BME280;9093;52.062;4.508;2023-04-01T10:29:40;100199.34;;;10.92;85.59
17936;BME280;9093;52.062;4.508;2023-04-01T10:35:57;100204.69;;;10.92;85.64
17936;BME280;9093;52.062;4.508;2023-04-01T10:48:05;100223.16;;;10.95;85.29
17936;BME280;9093;52.062;4.508;2023-04-01T10:54:09;100219.53;;;10.96;85.52
17936;BME280;9093;52.062;4.508;2023-04-01T11:03:26;100224.78;;;10.98;85.50
17936;BME280;9093;52.062;4.508;2023-04-01T11:16:06;100239.38;;;11.06;85.35
17936;BME280;9093;52.062;4.508;2023-04-01T11:22:53;100247.38;;;11.06;85.48
17936;BME280;9093;52.062;4.508;2023-04-01T11:29:03;100248.88;;;11.10;85.35
17936;BME280;9093;52.062;4.508;2023-04-01T11:35:05;100258.50;;;11.13;85.27
17936;BME280;9093;52.062;4.508;2023-04-01T11:38:09;100256.69;;;11.13;85.23
17936;BME280;9093;52.062;4.508;2023-04-01T11:44:16;100260.34;;;11.12;85.33
17936;BME280;9093;52.062;4.508;2023-04-01T11:56:31;100281.72;;;11.12;85.38
17936;BME280;9093;52.062;4.508;2023-04-01T12:08:31;100306.31;;;11.17;85.31
17936;BME280;9093;52.062;4.508;2023-04-01T12:14:43;100316.38;;;11.26;85.43
17936;BME280;9093;52.062;4.508;2023-04-01T12:20:57;100312.97;;;11.24;85.05
17936;BME280;9093;52.062;4.508;2023-04-01T12:30:34;100330.13;;;11.35;85.13
17936;BME280;9093;52.062;4.508;2023-04-01T12:36:48;100336.56;;;11.45;85.22
17936;BME280;9093;52.062;4.508;2023-04-01T12:40:02;100340.69;;;11.50;85.12
17936;BME280;9093;52.062;4.508;2023-04-01T13:06:29;100377.31;;;11.62;85.10
17936;BME280;9093;52.062;4.508;2023-04-01T13:09:39;100379.84;;;11.64;84.97
17936;BME280;9093;52.062;4.508;2023-04-01T13:15:26;100370.59;;;11.69;85.14
17936;BME280;9093;52.062;4.508;2023-04-01T13:27:05;100391.72;;;11.74;85.07
17936;BME280;9093;52.062;4.508;2023-04-01T13:30:27;100396.84;;;11.77;85.00
17936;BME280;9093;52.062;4.508;2023-04-01T13:33:42;100408.22;;;11.81;85.07
17936;BME280;9093;52.062;4.508;2023-04-01T13:42:50;100412.88;;;11.77;84.85
17936;BME280;9093;52.062;4.508;2023-04-01T13:51:55;100413.25;;;11.71;85.12
17936;BME280;9093;52.062;4.508;2023-04-01T14:12:30;100433.69;;;11.86;84.88
17936;BME280;9093;52.062;4.508;2023-04-01T14:24:22;100461.50;;;11.84;85.39
17936;BME280;9093;52.062;4.508;2023-04-01T14:33:23;100469.03;;;11.91;84.99
17936;BME280;9093;52.062;4.508;2023-04-01T14:39:29;100466.28;;;11.79;85.22
17936;BME280;9093;52.062;4.508;2023-04-01T14:45:45;100479.03;;;11.75;85.15
17936;BME280;9093;52.062;4.508;2023-04-01T14:48:36;100484.47;;;11.74;84.91
17936;BME280;9093;52.062;4.508;2023-04-01T14:51:28;100481.84;;;11.72;85.05
17936;BME280;9093;52.062;4.508;2023-04-01T14:54:20;100492.75;;;11.69;85.07
17936;BME280;9093;52.062;4.508;2023-04-01T15:00:13;100500.00;;;11.67;85.07
17936;BME280;9093;52.062;4.508;2023-04-01T15:03:06;100509.38;;;11.60;85.16
17936;BME280;9093;52.062;4.508;2023-04-01T15:11:51;100522.63;;;11.47;85.37
17936;BME280;9093;52.062;4.508;2023-04-01T15:26:22;100543.16;;;11.47;85.50
17936;BME280;9093;52.062;4.508;2023-04-01T15:32:40;100556.34;;;11.50;85.76
17936;BME280;9093;52.062;4.508;2023-04-01T15:44:49;100576.97;;;11.48;85.78
17936;BME280;9093;52.062;4.508;2023-04-01T15:47:37;100588.31;;;11.51;85.62
17936;BME280;9093;52.062;4.508;2023-04-01T15:50:34;100594.53;;;11.52;85.87
17936;BME280;9093;52.062;4.508;2023-04-01T15:53:41;100596.47;;;11.50;85.86
17936;BME280;9093;52.062;4.508;2023-04-01T16:02:21;100604.38;;;11.51;85.94
17936;BME280;9093;52.062;4.508;2023-04-01T16:05:31;100606.00;;;11.54;85.91
17936;BME280;9093;52.062;4.508;2023-04-01T16:08:28;100610.41;;;11.55;85.86
17936;BME280;9093;52.062;4.508;2023-04-01T16:14:49;100632.75;;;11.54;85.95
17936;BME280;9093;52.062;4.508;2023-04-01T16:23:40;100646.66;;;11.45;86.00
17936;BME280;9093;52.062;4.508;2023-04-01T16:26:27;100653.91;;;11.43;85.96
17936;BME280;9093;52.062;4.508;2023-04-01T16:29:27;100657.53;;;11.42;85.94
17936;BME280;9093;52.062;4.508;2023-04-01T16:43:57;100691.72;;;11.37;86.29
17936;BME280;9093;52.062;4.508;2023-04-01T16:46:41;100705.09;;;11.37;86.00
17936;BME280;9093;52.062;4.508;2023-04-01T16:49:39;100703.50;;;11.33;86.28
17936;BME280;9093;52.062;4.508;2023-04-01T16:52:44;100708.97;;;11.31;86.38
17936;BME280;9093;52.062;4.508;2023-04-01T16:55:55;100717.84;;;11.32;86.13
17936;BME280;9093;52.062;4.508;2023-04-01T16:59:02;100723.09;;;11.33;85.93
17936;BME280;9093;52.062;4.508;2023-04-01T17:01:52;100727.56;;;11.33;86.13
17936;BME280;9093;52.062;4.508;2023-04-01T17:10:46;100746.56;;;11.28;86.17
17936;BME280;9093;52.062;4.508;2023-04-01T17:22:34;100771.91;;;11.21;86.31
17936;BME280;9093;52.062;4.508;2023-04-01T17:46:10;100839.69;;;11.04;86.30
17936;BME280;9093;52.062;4.508;2023-04-01T17:52:23;100849.66;;;11.01;86.37
17936;BME280;9093;52.062;4.508;2023-04-01T17:58:19;100854.13;;;11.00;86.26
17936;BME280;9093;52.062;4.508;2023-04-01T18:01:36;100871.88;;;11.01;86.09
17936;BME280;9093;52.062;4.508;2023-04-01T18:04:40;100874.69;;;11.00;86.20
17936;BME280;9093;52.062;4.508;2023-04-01T18:07:37;100875.50;;;11.00;86.08
17936;BME280;9093;52.062;4.508;2023-04-01T18:10:29;100886.19;;;11.00;86.19
17936;BME280;9093;52.062;4.508;2023-04-01T18:16:26;100904.91;;;11.00;86.07
17936;BME280;9093;52.062;4.508;2023-04-01T18:22:42;100912.16;;;10.98;85.98
17936;BME280;9093;52.062;4.508;2023-04-01T18:25:37;100916.72;;;10.96;85.98
17936;BME280;9093;52.062;4.508;2023-04-01T18:28:36;100938.25;;;10.93;86.21
17936;BME280;9093;52.062;4.508;2023-04-01T18:31:21;100933.06;;;10.90;86.08
17936;BME280;9093;52.062;4.508;2023-04-01T18:34:07;100950.97;;;10.88;86.07
17936;BME280;9093;52.062;4.508;2023-04-01T18:36:55;100949.28;;;10.87;85.99
17936;BME280;9093;52.062;4.508;2023-04-01T18:39:41;100958.22;;;10.86;86.20
17936;BME280;9093;52.062;4.508;2023-04-01T18:45:27;100968.91;;;10.86;85.91
17936;BME280;9093;52.062;4.508;2023-04-01T18:54:33;100997.66;;;10.81;86.08
17936;BME280;9093;52.062;4.508;2023-04-01T18:57:21;100998.50;;;10.81;86.03
17936;BME280;9093;52.062;4.508;2023-04-01T19:00:13;101013.69;;;10.81;86.12
17936;BME280;9093;52.062;4.508;2023-04-01T19:03:20;101020.91;;;10.79;85.79
17936;BME280;9093;52.062;4.508;2023-04-01T19:05:59;101032.53;;;10.78;86.09
17936;BME280;9093;52.062;4.508;2023-04-01T19:08:41;101028.13;;;10.77;85.74
17936;BME280;9093;52.062;4.508;2023-04-01T19:11:44;101042.59;;;10.73;85.77
17936;BME280;9093;52.062;4.508;2023-04-01T19:18:08;101056.97;;;10.70;85.89
17936;BME280;9093;52.062;4.508;2023-04-01T19:20:35;101066.88;;;10.68;85.71
17936;BME280;9093;52.062;4.508;2023-04-01T19:26:09;101074.03;;;10.68;86.06
17936;BME280;9093;52.062;4.508;2023-04-01T19:29:53;101092.84;;;10.65;85.85
17936;BME280;9093;52.062;4.508;2023-04-01T19:38:31;101105.41;;;10.63;85.81
17936;BME280;9093;52.062;4.508;2023-04-01T19:41:36;101104.69;;;10.59;85.85
17936;BME280;9093;52.062;4.508;2023-04-01T19:51:08;101122.69;;;10.56;85.74
17936;BME280;9093;52.062;4.508;2023-04-01T20:06:37;101155.09;;;10.48;85.67
17936;BME280;9093;52.062;4.508;2023-04-01T20:12:49;101161.44;;;10.45;85.50
17936;BME280;9093;52.062;4.508;2023-04-01T20:15:28;101166.94;;;10.42;85.75
17936;BME280;9093;52.062;4.508;2023-04-01T20:18:23;101180.34;;;10.41;85.86
17936;BME280;9093;52.062;4.508;2023-04-01T20:21:17;101186.69;;;10.38;85.54
17936;BME280;9093;52.062;4.508;2023-04-01T20:24:14;101188.59;;;10.36;85.72
17936;BME280;9093;52.062;4.508;2023-04-01T20:27:25;101195.63;;;10.37;85.71
17936;BME280;9093;52.062;4.508;2023-04-01T20:30:34;101206.31;;;10.37;85.76
17936;BME280;9093;52.062;4.508;2023-04-01T20:33:26;101206.47;;;10.34;85.54
17936;BME280;9093;52.062;4.508;2023-04-01T20:39:27;101228.09;;;10.28;85.91
17936;BME280;9093;52.062;4.508;2023-04-01T20:45:28;101245.97;;;10.26;85.61
17936;BME280;9093;52.062;4.508;2023-04-01T20:51:12;101251.31;;;10.26;85.68
17936;BME280;9093;52.062;4.508;2023-04-01T20:54:05;101254.78;;;10.28;85.49
17936;BME280;9093;52.062;4.508;2023-04-01T21:00:24;101260.47;;;10.21;85.85
17936;BME280;9093;52.062;4.508;2023-04-01T21:03:36;101274.69;;;10.21;85.58
17936;BME280;9093;52.062;4.508;2023-04-01T21:06:31;101279.16;;;10.21;85.53
17936;BME280;9093;52.062;4.508;2023-04-01T21:12:46;101296.41;;;10.12;85.51
17936;BME280;9093;52.062;4.508;2023-04-01T21:15:43;101302.00;;;10.06;85.79
17936;BME280;9093;52.062;4.508;2023-04-01T21:30:59;101335.75;;;10.07;85.77
17936;BME280;9093;52.062;4.508;2023-04-01T21:49:19;101381.38;;;10.01;85.97
17936;BME280;9093;52.062;4.508;2023-04-01T22:07:14;101409.13;;;9.97;85.73
17936;BME280;9093;52.062;4.508;2023-04-01T22:13:06;101425.41;;;9.91;85.58
17936;BME280;9093;52.062;4.508;2023-04-01T22:18:43;101432.63;;;9.87;85.48
17936;BME280;9093;52.062;4.508;2023-04-01T22:21:36;101439.78;;;9.87;85.41
17936;BME280;9093;52.062;4.508;2023-04-01T22:24:29;101443.41;;;9.86;85.34
17936;BME280;9093;52.062;4.508;2023-04-01T22:30:38;101447.84;;;9.85;85.53
17936;BME280;9093;52.062;4.508;2023-04-01T22:33:21;101447.00;;;9.85;85.43
17936;BME280;9093;52.062;4.508;2023-04-01T22:36:17;101448.84;;;9.83;85.47
17936;BME280;9093;52.062;4.508;2023-04-01T22:42:10;101460.56;;;9.79;85.22
17936;BME280;9093;52.062;4.508;2023-04-01T22:45:05;101476.50;;;9.80;85.19
17936;BME280;9093;52.062;4.508;2023-04-01T22:51:24;101479.50;;;9.73;85.16
17936;BME280;9093;52.062;4.508;2023-04-01T22:56:57;101493.75;;;9.72;85.15
17936;BME280;9093;52.062;4.508;2023-04-01T23:02:42;101503.59;;;9.69;85.16
17936;BME280;9093;52.062;4.508;2023-04-01T23:05:26;101513.44;;;9.67;85.14
17936;BME280;9093;52.062;4.508;2023-04-01T23:11:14;101526.84;;;9.66;85.10
17936;BME280;9093;52.062;4.508;2023-04-01T23:14:23;101531.41;;;9.62;84.99
17936;BME280;9093;52.062;4.508;2023-04-01T23:25:49;101547.66;;;9.56;85.13
17936;BME280;9093;52.062;4.508;2023-04-01T23:31:35;101558.31;;;9.56;84.98
17936;BME280;9093;52.062;4.508;2023-04-01T23:34:25;101557.53;;;9.54;84.75
17936;BME280;9093;52.062;4.508;2023-04-01T23:37:10;101556.53;;;9.57;84.86
17936;BME280;9093;52.062;4.508;2023-04-01T23:39:57;101565.41;;;9.57;84.61
17936;BME280;9093;52.062;4.508;2023-04-01T23:42:41;101568.06;;;9.57;84.68
17936;BME280;9093;52.062;4.508;2023-04-01T23:45:22;101569.84;;;9.57;84.51
17936;BME280;9093;52.062;4.508;2023-04-01T23:48:02;101565.41;;;9.57;84.66
17936;BME280;9093;52.062;4.508;2023-04-01T23:50:44;101575.25;;;9.55;84.40
17936;BME280;9093;52.062;4.508;2023-04-01T23:53:26;101583.25;;;9.55;84.58
17936;BME280;9093;52.062;4.508;2023-04-01T23:56:09;101588.56;;;9.55;84.32
17936;BME280;9093;52.062;4.508;2023-04-01T23:58:52;101600.19;;;9.54;84.37
